Port Moresby, Papua New Guinea
Current Conditions -  °F | °C
As of 11:30 AM on Wednesday 22 Oct 2014 (Local Time) from YHID Reporting Station
Clear Clear  
Wind Chill: 86°   Ceiling: Unl
Heat Index: 89°   Visibility: 6mi
Dew Point: 68°   Wind: 23mph
Humidity: 55%   Direction: 120°ESE
Pressure: 29.94"   Gusts: NA
Location:  9.48°S, 147.18°E
Report Text: YHID 220130Z AUTO 12020KT 9999 // NCD 30/20 Q1014
Loading
Personal Weather Stations






























Interactive Weather Map
Tropical Storm Tracking
New forecast layout! Learn more

10-Day Weather Forecast

Advertisements
Track Severe Weather on mobile